Estación Meteorológica Peña el Pijo (Robertgarden) [ 01/30/23 15:04:45 CET ]

Fecha Hora Presion(HPa) Temp (°C) Humedad % Rocio (°C) Viento ( m/s) Direccion Lluvia 1Hora(mm) Lluvia 24H(mm) LLuvia Total(mm)
2010-Aug-13 01:01:15 1011.400 15.9 43 3.3         131.57
2010-Aug-13 02:01:12 1011.400 14.9 48 4.0         131.57
2010-Aug-13 03:01:14 1011.000 14.6 52 4.9         131.57
2010-Aug-13 04:01:12 1010.900 16.8 53 7.1         131.57
2010-Aug-13 05:01:12 1010.600 16.5 61 9.0         131.57
2010-Aug-13 06:01:11 1010.400 14.9 69 9.3         131.57
2010-Aug-13 07:01:15 1010.500 14.1 77 10.1         131.57
2010-Aug-13 08:01:14 1011.000 13.9 81 10.7         131.57
2010-Aug-13 09:01:15 1010.900 17.3 75 12.8         131.57
2010-Aug-13 10:01:15 1010.900 22.1 64 14.9         131.57
2010-Aug-13 11:01:14 1010.500 24.5 54 14.6         131.57
2010-Aug-13 12:01:10 1010.500 25.6 51 14.7         131.57
2010-Aug-13 13:01:12 1010.000 26.4 48 14.5         131.57
2010-Aug-13 14:01:19 1009.100 26.9 45 13.9         131.57
2010-Aug-13 15:01:20 1009.200 18.9 80 15.4     3.10 3.10 134.68
2010-Aug-13 16:01:14 1008.600 23.6 65 16.6       3.10 134.68
2010-Aug-13 17:31:19 1008.200 22.8 63 15.4       3.10 134.68
2010-Aug-13 18:01:43 1008.000 22.1 64 14.9       3.10 134.68
2010-Aug-13 19:01:39 1008.200 19.8 72 14.6       3.10 134.68
2010-Aug-13 20:01:46 1009.900 18.2 77 14.1     1.03 4.14 135.71
2010-Aug-13 21:01:15 1009.600 15.9 87 13.8     1.03 5.18 136.75
2010-Aug-13 22:01:15 1010.100 15.3 89 13.5       5.18 136.75
2010-Aug-13 23:01:14 1010.800 14.9 90 13.3       5.18 136.75

Temperatura Máxima:26°    Temperatura Mínima:13°
Presión Máxima:1011.400 Hpa    Presión Mínima:1008.000 Hpa


Volver